Time;durP1;ratioP1;P1;durP2;ratioP2;P2;SDS_P1;SDS_P2;PMS_P1;PMS_P2;Temp;Humidity;BMP_temperature;BMP_pressure;BME280_temperature;BME280_humidity;BME280_pressure;Samples;Min_cycle;Max_cycle;Signal;HPM_P1;HPM_P2
2022/03/01 00:00:39;;;;;;;20.40;13.70;;;24.00;51.40;;;;;;220185;1267;23751;-53
2022/03/01 00:05:44;;;;;;;22.40;13.70;;;24.00;51.50;;;;;;220314;1266;25622;-53
2022/03/01 00:10:53;;;;;;;19.90;13.20;;;24.00;51.70;;;;;;220213;1267;25493;-52
2022/03/01 00:15:58;;;;;;;21.00;13.50;;;23.90;51.50;;;;;;220667;1265;22520;-54
2022/03/01 00:21:09;;;;;;;20.70;13.70;;;23.80;51.40;;;;;;220022;1268;25475;-52
2022/03/01 00:26:17;;;;;;;22.30;14.50;;;23.60;51.60;;;;;;219993;1267;22526;-51
2022/03/01 00:31:25;;;;;;;20.40;13.40;;;23.50;51.80;;;;;;219996;1267;24290;-49
2022/03/01 00:36:36;;;;;;;21.60;13.20;;;23.40;51.80;;;;;;220335;1267;25747;-53
2022/03/01 00:41:41;;;;;;;21.60;14.10;;;23.30;51.90;;;;;;220196;1268;22547;-53
2022/03/01 00:46:47;;;;;;;20.00;13.20;;;23.10;52.10;;;;;;220179;1267;22615;-51
2022/03/01 00:51:52;;;;;;;20.60;13.70;;;23.00;52.10;;;;;;219996;1267;22544;-54
2022/03/01 00:56:57;;;;;;;21.30;13.20;;;22.90;52.40;;;;;;220096;1267;24258;-53
2022/03/01 01:02:02;;;;;;;21.10;13.70;;;22.80;52.80;;;;;;219976;1267;24311;-50
2022/03/01 01:07:05;;;;;;;20.20;14.60;;;22.70;52.70;;;;;;220076;1266;22545;-54
2022/03/01 01:12:10;;;;;;;19.20;12.90;;;22.60;53.10;;;;;;220012;1267;24394;-55
2022/03/01 01:17:14;;;;;;;18.80;13.00;;;22.50;53.10;;;;;;220323;1267;22522;-56
2022/03/01 01:27:43;;;;;;;21.20;13.00;;;22.40;53.00;;;;;;220442;1267;25653;-52
2022/03/01 01:32:48;;;;;;;19.90;12.60;;;22.30;53.20;;;;;;220353;1267;26559;-51
2022/03/01 01:37:53;;;;;;;17.00;10.70;;;22.40;52.80;;;;;;220143;1267;25883;-54
2022/03/01 01:42:58;;;;;;;18.60;12.20;;;22.80;52.00;;;;;;219973;1267;25520;-54
2022/03/01 01:48:02;;;;;;;17.50;11.60;;;23.10;50.90;;;;;;220277;1267;22701;-52
2022/03/01 01:53:06;;;;;;;18.30;12.20;;;23.30;50.10;;;;;;220413;1267;25547;-53
2022/03/01 01:58:10;;;;;;;19.50;12.30;;;23.50;49.90;;;;;;220142;1267;22524;-55
2022/03/01 02:03:15;;;;;;;17.90;12.30;;;23.60;49.90;;;;;;220087;1267;22614;-52
2022/03/01 02:08:19;;;;;;;19.00;11.20;;;23.60;49.50;;;;;;220383;1267;27013;-51
2022/03/01 02:13:22;;;;;;;17.70;11.90;;;23.70;49.80;;;;;;219901;1267;22544;-52
2022/03/01 02:18:27;;;;;;;19.00;11.80;;;23.70;49.40;;;;;;219988;1267;25254;-54
2022/03/01 02:23:30;;;;;;;19.30;12.00;;;23.80;49.00;;;;;;220087;1267;25478;-55
2022/03/01 02:28:34;;;;;;;18.80;12.00;;;23.90;48.90;;;;;;220038;1267;25362;-52
2022/03/01 02:33:37;;;;;;;17.60;12.10;;;23.90;48.90;;;;;;220314;1267;24316;-53
2022/03/01 02:38:41;;;;;;;17.40;10.90;;;23.90;48.40;;;;;;220138;1267;22700;-51
2022/03/01 02:43:45;;;;;;;19.40;11.20;;;23.90;48.10;;;;;;220031;1267;22543;-53
2022/03/01 02:48:48;;;;;;;15.30;10.80;;;24.00;48.40;;;;;;220148;1267;25362;-53
2022/03/01 02:53:53;;;;;;;16.60;10.50;;;24.00;48.50;;;;;;219853;1267;25391;-56
2022/03/01 02:59:04;;;;;;;16.50;11.30;;;24.00;48.30;;;;;;220359;1267;25627;-54
2022/03/01 03:04:08;;;;;;;18.50;10.90;;;24.10;48.40;;;;;;220419;1266;22522;-55
2022/03/01 03:09:13;;;;;;;15.70;10.70;;;24.10;48.60;;;;;;220087;1267;25201;-53
2022/03/01 03:14:18;;;;;;;14.40;9.70;;;24.10;47.60;;;;;;220304;1267;25317;-55
2022/03/01 03:19:23;;;;;;;17.30;11.50;;;24.20;48.20;;;;;;220478;1267;22527;-54
2022/03/01 03:24:27;;;;;;;15.70;10.00;;;24.30;47.60;;;;;;220421;1267;22525;-52
2022/03/01 03:29:30;;;;;;;14.40;9.90;;;24.20;47.60;;;;;;220186;1267;22547;-57
2022/03/01 03:34:34;;;;;;;15.30;9.90;;;24.20;47.40;;;;;;220042;1267;25528;-55
2022/03/01 03:39:37;;;;;;;16.40;10.40;;;24.20;46.90;;;;;;220135;1267;24411;-54
2022/03/01 03:44:41;;;;;;;16.80;11.00;;;24.20;46.90;;;;;;220106;1267;24255;-52
2022/03/01 03:49:45;;;;;;;17.00;10.80;;;24.30;46.90;;;;;;220111;1267;24289;-55
2022/03/01 03:54:50;;;;;;;17.60;11.00;;;24.30;47.00;;;;;;220059;1267;22547;-53
2022/03/01 03:59:53;;;;;;;17.30;11.00;;;24.20;46.60;;;;;;220111;1267;24282;-51
2022/03/01 04:04:57;;;;;;;15.70;10.60;;;24.10;46.90;;;;;;220107;1267;25446;-53
2022/03/01 04:10:00;;;;;;;14.70;10.20;;;23.90;47.30;;;;;;219989;1267;22524;-54
2022/03/01 04:15:06;;;;;;;14.50;9.70;;;23.80;47.10;;;;;;219915;1267;22584;-55
2022/03/01 04:20:10;;;;;;;16.10;10.20;;;23.70;47.30;;;;;;220250;1267;22627;-51
2022/03/01 04:25:14;;;;;;;17.00;10.90;;;23.60;47.40;;;;;;220008;1267;24235;-54
2022/03/01 04:30:17;;;;;;;14.30;10.50;;;23.40;47.90;;;;;;219844;1267;22524;-53
2022/03/01 04:35:21;;;;;;;15.80;10.80;;;23.20;47.80;;;;;;220411;1265;24893;-54
2022/03/01 04:40:25;;;;;;;16.00;10.90;;;23.20;48.10;;;;;;220039;1267;25301;-54
2022/03/01 04:45:28;;;;;;;15.60;10.40;;;23.00;48.20;;;;;;219904;1267;22550;-51
2022/03/01 04:50:32;;;;;;;15.60;10.20;;;22.90;48.30;;;;;;220178;1267;25231;-55
2022/03/01 04:55:36;;;;;;;19.30;11.30;;;22.90;48.60;;;;;;220679;1267;22529;-51
2022/03/01 05:00:40;;;;;;;17.40;10.70;;;22.80;48.60;;;;;;220222;1267;23976;-54
2022/03/01 05:05:44;;;;;;;16.90;11.00;;;22.70;48.80;;;;;;220034;1267;25244;-54
2022/03/01 05:10:47;;;;;;;16.30;11.00;;;22.60;49.30;;;;;;220009;1265;25702;-55
2022/03/01 05:15:51;;;;;;;15.40;10.60;;;22.50;48.90;;;;;;220454;1265;26612;-53
2022/03/01 05:20:55;;;;;;;13.70;9.80;;;22.40;49.10;;;;;;220985;1267;22525;-54
2022/03/01 05:25:59;;;;;;;17.50;10.80;;;22.30;49.40;;;;;;220574;1264;22721;-56
2022/03/01 05:31:02;;;;;;;17.90;11.20;;;22.40;49.10;;;;;;220146;1265;23146;-55
2022/03/01 05:36:06;;;;;;;16.80;9.00;;;22.80;48.30;;;;;;220335;1267;22556;-54
2022/03/01 05:41:14;;;;;;;16.50;9.90;;;23.20;48.00;;;;;;220221;1267;24196;-54
2022/03/01 05:46:18;;;;;;;12.80;8.80;;;23.30;47.90;;;;;;220474;1267;22571;-54
2022/03/01 05:51:22;;;;;;;14.70;9.90;;;23.50;47.30;;;;;;220448;1265;23193;-54
2022/03/01 05:56:25;;;;;;;14.20;9.30;;;23.60;47.10;;;;;;220490;1264;22584;-54
2022/03/01 06:01:30;;;;;;;16.10;10.00;;;23.70;46.70;;;;;;219977;1267;25517;-51
2022/03/01 06:06:34;;;;;;;15.00;9.80;;;23.80;46.90;;;;;;220352;1267;24073;-55
2022/03/01 06:11:42;;;;;;;13.90;9.30;;;23.80;46.90;;;;;;220156;1267;22607;-52
2022/03/01 06:16:46;;;;;;;15.50;10.40;;;23.90;46.20;;;;;;220267;1267;24208;-52
2022/03/01 06:21:52;;;;;;;15.70;9.80;;;23.90;46.00;;;;;;220193;1267;22638;-52
2022/03/01 06:26:56;;;;;;;16.30;10.60;;;23.90;46.10;;;;;;220633;1267;22535;-54
2022/03/01 06:32:03;;;;;;;16.10;9.40;;;23.90;46.00;;;;;;220140;1267;22647;-52
2022/03/01 06:37:12;;;;;;;16.80;9.80;;;23.90;46.00;;;;;;220553;1265;24228;-54
2022/03/01 06:42:17;;;;;;;14.80;9.70;;;24.00;45.50;;;;;;220219;1267;22541;-55
2022/03/01 06:47:21;;;;;;;15.40;10.00;;;24.00;45.40;;;;;;220059;1267;23748;-54
2022/03/01 06:52:25;;;;;;;15.70;9.90;;;24.10;45.40;;;;;;220034;1267;22528;-55
2022/03/01 06:57:30;;;;;;;15.50;9.70;;;24.10;45.20;;;;;;220110;1267;25316;-53
2022/03/01 07:02:45;;;;;;;15.40;10.10;;;24.20;45.40;;;;;;219817;1265;22531;-56
2022/03/01 07:07:54;;;;;;;17.80;10.90;;;24.20;45.50;;;;;;220124;1267;22548;-54
2022/03/01 07:13:10;;;;;;;14.80;10.30;;;24.20;45.20;;;;;;220466;1267;22544;-54
2022/03/01 07:18:35;;;;;;;16.10;9.50;;;24.20;45.50;;;;;;220540;1267;26704;-55
2022/03/01 07:23:50;;;;;;;17.30;11.10;;;24.00;46.10;;;;;;219786;1267;24245;-51
2022/03/01 07:28:57;;;;;;;24.90;11.20;;;24.00;46.10;;;;;;219879;1267;25375;-52
2022/03/01 07:34:06;;;;;;;22.80;10.40;;;23.90;46.80;;;;;;219969;1267;22534;-55
2022/03/01 07:39:11;;;;;;;22.40;11.40;;;23.80;46.60;;;;;;219980;1267;26468;-53
2022/03/01 07:44:16;;;;;;;16.00;9.80;;;23.70;47.00;;;;;;220218;1267;25371;-51
2022/03/01 07:49:20;;;;;;;17.60;9.40;;;23.60;47.00;;;;;;219725;1270;22553;-51
2022/03/01 07:54:24;;;;;;;20.50;9.90;;;23.50;47.40;;;;;;219510;1267;22551;-55
2022/03/01 07:59:27;;;;;;;21.70;9.90;;;23.30;47.90;;;;;;220963;1267;24325;-52
2022/03/01 08:04:33;;;;;;;16.40;9.80;;;23.10;48.20;;;;;;219816;1267;25505;-54
2022/03/01 08:09:38;;;;;;;19.50;9.70;;;23.10;48.20;;;;;;220052;1267;23525;-57
2022/03/01 08:14:42;;;;;;;19.00;9.80;;;23.00;48.30;;;;;;220104;1267;22535;-51
2022/03/01 08:19:50;;;;;;;21.50;10.20;;;23.00;48.50;;;;;;220213;1267;24295;-55
2022/03/01 08:24:53;;;;;;;18.40;9.70;;;23.10;47.90;;;;;;219587;1270;23115;-55
2022/03/01 08:29:57;;;;;;;19.40;10.20;;;23.00;47.70;;;;;;219876;1267;22531;-52
2022/03/01 08:35:01;;;;;;;20.90;10.90;;;23.10;47.50;;;;;;220045;1267;22526;-53
2022/03/01 08:40:05;;;;;;;17.70;9.90;;;23.00;47.30;;;;;;219916;1267;25365;-57
2022/03/01 08:45:09;;;;;;;16.50;9.60;;;23.00;47.50;;;;;;220359;1267;22538;-51
2022/03/01 08:50:15;;;;;;;20.70;10.40;;;23.00;46.90;;;;;;220092;1267;22691;-53
2022/03/01 08:55:42;;;;;;;17.30;10.00;;;23.00;46.80;;;;;;220229;1267;22546;-54
2022/03/01 09:00:46;;;;;;;15.70;10.00;;;22.90;46.70;;;;;;220666;1267;22602;-55
2022/03/01 09:05:55;;;;;;;16.60;9.40;;;22.90;46.70;;;;;;220848;1267;25552;-55
2022/03/01 09:11:05;;;;;;;16.00;9.70;;;22.90;46.80;;;;;;220749;1266;22510;-51
2022/03/01 09:16:09;;;;;;;14.80;9.10;;;22.80;46.70;;;;;;220454;1267;22538;-55
2022/03/01 09:21:16;;;;;;;19.60;10.50;;;22.80;46.70;;;;;;220656;1267;23903;-53
2022/03/01 09:26:19;;;;;;;17.50;9.40;;;22.80;46.90;;;;;;220271;1267;25633;-54
2022/03/01 09:31:23;;;;;;;19.10;10.00;;;22.70;46.70;;;;;;220330;1267;196284;-54
2022/03/01 09:36:30;;;;;;;19.50;10.60;;;22.80;47.00;;;;;;220241;1267;23593;-55
2022/03/01 09:41:34;;;;;;;18.40;9.10;;;22.80;46.70;;;;;;219998;1267;25462;-56
2022/03/01 09:46:38;;;;;;;18.90;9.70;;;22.80;46.70;;;;;;220189;1267;22550;-57
2022/03/01 09:51:43;;;;;;;20.00;10.00;;;22.80;46.40;;;;;;220357;1268;24196;-55
2022/03/01 09:56:46;;;;;;;21.10;9.80;;;22.80;46.70;;;;;;220416;1267;24221;-55
2022/03/01 10:01:51;;;;;;;18.10;8.80;;;22.80;46.70;;;;;;220654;1267;25452;-54
2022/03/01 10:06:56;;;;;;;17.40;9.00;;;22.90;46.30;;;;;;220474;1267;22526;-56
2022/03/01 10:12:07;;;;;;;16.90;9.10;;;22.90;46.20;;;;;;220062;1267;22589;-55
2022/03/01 10:17:13;;;;;;;15.50;8.80;;;22.90;46.60;;;;;;220628;1267;24562;-53
2022/03/01 10:22:21;;;;;;;21.40;8.90;;;22.90;45.80;;;;;;220427;1265;22544;-56
2022/03/01 10:27:28;;;;;;;18.80;9.40;;;22.90;45.90;;;;;;220226;1267;22594;-54
2022/03/01 10:32:34;;;;;;;16.30;9.50;;;22.90;45.70;;;;;;220596;1267;25573;-56
2022/03/01 10:37:49;;;;;;;14.00;8.30;;;22.90;45.70;;;;;;220204;1267;25210;-54
2022/03/01 10:43:00;;;;;;;14.90;8.60;;;22.90;43.40;;;;;;220467;1267;22541;-52
2022/03/01 10:48:06;;;;;;;15.40;8.10;;;22.90;42.00;;;;;;220658;1267;24238;-54
2022/03/01 10:53:11;;;;;;;17.80;9.50;;;22.90;41.60;;;;;;220194;1267;22612;-55
2022/03/01 10:58:14;;;;;;;13.70;8.50;;;23.00;40.50;;;;;;220383;1267;22566;-56
2022/03/01 11:03:20;;;;;;;13.50;7.30;;;23.30;38.90;;;;;;220466;1267;24435;-55
2022/03/01 11:08:38;;;;;;;12.10;7.70;;;23.50;37.90;;;;;;220830;1267;26888;-55
2022/03/01 11:13:45;;;;;;;12.30;8.50;;;23.80;37.10;;;;;;220258;1267;24316;-55
2022/03/01 11:19:18;;;;;;;10.50;7.20;;;23.60;32.40;;;;;;220413;1267;22662;-54
2022/03/01 11:24:23;;;;;;;9.90;7.50;;;23.70;33.30;;;;;;219511;1272;22661;-51
2022/03/01 11:29:36;;;;;;;10.00;7.00;;;23.80;33.70;;;;;;220536;1267;22724;-53
2022/03/01 11:34:41;;;;;;;11.70;7.90;;;23.90;33.20;;;;;;220853;1267;22555;-52
2022/03/01 11:39:57;;;;;;;9.00;6.30;;;24.00;33.10;;;;;;220093;1267;22547;-53
2022/03/01 11:45:09;;;;;;;9.50;6.90;;;24.10;33.00;;;;;;220439;1267;22554;-54
2022/03/01 11:50:18;;;;;;;9.50;6.40;;;24.20;32.90;;;;;;220435;1267;24324;-56
2022/03/01 11:55:29;;;;;;;12.40;6.70;;;24.30;32.90;;;;;;220093;1268;24228;-54
2022/03/01 12:00:35;;;;;;;9.70;6.50;;;24.40;33.60;;;;;;220333;1268;24256;-53
2022/03/01 12:05:39;;;;;;;11.70;6.60;;;24.50;32.70;;;;;;220561;1265;22554;-51
2022/03/01 12:11:06;;;;;;;9.70;6.30;;;24.60;32.80;;;;;;220328;1268;24226;-54
2022/03/01 12:16:24;;;;;;;8.90;6.00;;;24.70;33.20;;;;;;220248;1267;25492;-53
2022/03/01 12:21:28;;;;;;;8.80;5.90;;;24.70;33.70;;;;;;220468;1268;24393;-52
2022/03/01 12:26:42;;;;;;;11.30;6.10;;;24.80;34.20;;;;;;220182;1266;22607;-58
2022/03/01 12:31:59;;;;;;;8.60;5.80;;;24.70;34.90;;;;;;220038;1267;24230;-53
2022/03/01 12:37:06;;;;;;;8.90;5.70;;;24.70;35.90;;;;;;220452;1267;22541;-53
2022/03/01 12:42:09;;;;;;;7.70;5.70;;;24.60;36.80;;;;;;220471;1267;24277;-52
2022/03/01 12:47:13;;;;;;;8.30;5.60;;;24.50;37.70;;;;;;220267;1268;27527;-52
2022/03/01 12:52:20;;;;;;;7.50;5.30;;;24.50;38.50;;;;;;220525;1269;25580;-55
2022/03/01 12:57:23;;;;;;;8.40;5.00;;;24.50;39.80;;;;;;220588;1267;22537;-55
2022/03/01 13:02:27;;;;;;;8.00;5.50;;;24.40;40.10;;;;;;220661;1268;22538;-54
2022/03/01 13:07:31;;;;;;;7.60;5.00;;;24.30;40.70;;;;;;220628;1268;25379;-53
2022/03/01 13:12:34;;;;;;;8.10;5.50;;;24.30;41.60;;;;;;220398;1267;22556;-52
2022/03/01 13:17:54;;;;;;;9.20;5.20;;;24.30;41.60;;;;;;220771;1267;22522;-52
2022/03/01 13:23:09;;;;;;;9.60;4.90;;;24.30;42.50;;;;;;220528;1267;23955;-53
2022/03/01 13:28:12;;;;;;;8.30;5.60;;;24.20;42.50;;;;;;220631;1269;24213;-53
2022/03/01 13:33:27;;;;;;;10.90;5.20;;;24.20;42.50;;;;;;220503;1268;24381;-52
2022/03/01 13:38:31;;;;;;;8.70;4.90;;;24.10;43.00;;;;;;221512;1269;23114;-53
2022/03/01 13:43:35;;;;;;;7.30;5.00;;;24.10;43.30;;;;;;221901;1269;22565;-56
2022/03/01 13:48:40;;;;;;;8.10;5.40;;;24.00;43.00;;;;;;221155;1268;22544;-56
2022/03/01 13:53:48;;;;;;;8.80;5.20;;;24.00;43.00;;;;;;220775;1268;25664;-54
2022/03/01 13:58:52;;;;;;;6.40;4.30;;;24.00;42.60;;;;;;220517;1268;24224;-56
2022/03/01 14:04:05;;;;;;;8.20;4.90;;;23.90;43.20;;;;;;220283;1267;24183;-55
2022/03/01 14:09:15;;;;;;;7.30;4.80;;;23.90;43.20;;;;;;221847;1267;22563;-51
2022/03/01 14:14:25;;;;;;;7.10;5.10;;;23.90;43.30;;;;;;220966;1268;24242;-52
2022/03/01 14:19:28;;;;;;;5.80;4.20;;;23.90;43.20;;;;;;220254;1268;22534;-52
2022/03/01 14:24:35;;;;;;;6.70;4.40;;;23.90;43.40;;;;;;220135;1268;25413;-55
2022/03/01 14:29:41;;;;;;;7.40;5.20;;;23.90;43.80;;;;;;220340;1268;22557;-53
2022/03/01 14:34:45;;;;;;;6.90;4.80;;;23.80;43.20;;;;;;220305;1268;23830;-54
2022/03/01 14:39:49;;;;;;;7.90;5.10;;;23.80;43.60;;;;;;220077;1268;24360;-52
2022/03/01 14:44:53;;;;;;;7.00;5.00;;;23.70;43.30;;;;;;219817;1268;22552;-51
2022/03/01 14:49:58;;;;;;;6.50;4.50;;;23.60;43.30;;;;;;220107;1268;25448;-53
2022/03/01 14:55:03;;;;;;;8.00;5.00;;;23.60;43.30;;;;;;220133;1268;22606;-52
2022/03/01 15:00:12;;;;;;;8.00;5.00;;;23.50;43.40;;;;;;220164;1268;22522;-53
2022/03/01 15:05:17;;;;;;;7.80;4.60;;;23.50;43.20;;;;;;220363;1268;25270;-54
2022/03/01 15:10:22;;;;;;;7.90;4.90;;;23.40;43.20;;;;;;220401;1268;26967;-54
2022/03/01 15:15:26;;;;;;;6.80;4.50;;;23.30;43.80;;;;;;219924;1268;26131;-54
2022/03/01 15:20:29;;;;;;;6.60;4.40;;;23.20;43.30;;;;;;220023;1268;22564;-54
2022/03/01 15:25:39;;;;;;;7.20;4.60;;;23.20;43.00;;;;;;220056;1267;22540;-56
2022/03/01 15:30:44;;;;;;;6.60;4.40;;;23.10;43.00;;;;;;220322;1268;22566;-52
2022/03/01 15:35:49;;;;;;;6.60;4.30;;;23.10;43.00;;;;;;220162;1268;25528;-55
2022/03/01 15:40:57;;;;;;;6.40;4.60;;;23.00;42.90;;;;;;220259;1268;24412;-52
2022/03/01 15:46:02;;;;;;;8.30;4.50;;;23.00;42.90;;;;;;220237;1267;22557;-55
2022/03/01 15:51:12;;;;;;;7.40;4.40;;;22.90;42.60;;;;;;220105;1267;22547;-54
2022/03/01 15:56:32;;;;;;;6.90;4.20;;;22.80;42.80;;;;;;220053;1268;27513;-55
2022/03/01 16:01:47;;;;;;;8.20;4.90;;;22.80;43.20;;;;;;220570;1268;25863;-51
2022/03/01 16:06:52;;;;;;;6.20;4.30;;;22.70;43.00;;;;;;220063;1267;22725;-55
2022/03/01 16:12:00;;;;;;;10.10;4.80;;;22.60;43.00;;;;;;220110;1266;25245;-54
2022/03/01 16:17:11;;;;;;;9.80;4.90;;;22.60;43.20;;;;;;219803;1267;25334;-54
2022/03/01 16:22:18;;;;;;;;;;;22.60;42.80;;;;;;219955;1267;22517;-55
2022/03/01 16:27:33;;;;;;;8.80;4.70;;;22.70;43.10;;;;;;220087;1265;25244;-52
2022/03/01 16:32:38;;;;;;;10.40;5.20;;;22.60;43.80;;;;;;219848;1267;25658;-55
2022/03/01 16:37:44;;;;;;;11.00;5.20;;;22.70;44.70;;;;;;219803;1267;24309;-52
2022/03/01 16:42:53;;;;;;;10.50;5.80;;;22.70;46.90;;;;;;219962;1267;22542;-55
2022/03/01 16:48:04;;;;;;;10.60;5.00;;;22.60;47.60;;;;;;220619;1265;22569;-57
2022/03/01 16:53:14;;;;;;;9.40;5.10;;;22.60;47.50;;;;;;219332;1267;22656;-53
2022/03/01 16:58:21;;;;;;;15.90;5.60;;;22.60;47.40;;;;;;219950;1265;22612;-54
2022/03/01 17:04:00;;;;;;;16.00;6.10;;;22.50;48.20;;;;;;228110;1266;22373;-56
2022/03/01 17:09:13;;;;;;;13.90;6.10;;;22.50;49.50;;;;;;228082;1267;22466;-57
2022/03/01 17:15:11;;;;;;;16.00;6.60;;;22.70;50.70;;;;;;227809;1268;23134;-52
2022/03/01 17:20:30;;;;;;;14.90;6.80;;;22.60;49.60;;;;;;227950;1267;23690;-53
2022/03/01 17:25:44;;;;;;;12.30;6.40;;;22.60;48.80;;;;;;227768;1268;22594;-52
2022/03/01 17:30:50;;;;;;;14.00;6.60;;;22.50;48.30;;;;;;228002;1267;22528;-56
2022/03/01 17:36:28;;;;;;;13.60;6.90;;;22.50;48.10;;;;;;227985;1267;22479;-54
2022/03/01 17:42:07;;;;;;;13.00;7.70;;;22.40;47.10;;;;;;227961;1264;22406;-52
2022/03/01 17:48:00;;;;;;;13.90;7.40;;;22.40;47.10;;;;;;227841;1266;23073;-54
2022/03/01 17:53:21;;;;;;;19.20;9.00;;;22.40;47.20;;;;;;227959;1264;22345;-54
2022/03/01 17:58:42;;;;;;;24.00;8.90;;;22.40;47.10;;;;;;219211;1267;22606;-51
2022/03/01 18:03:58;;;;;;;20.60;10.80;;;22.40;46.70;;;;;;219857;1265;22553;-50
2022/03/01 18:09:13;;;;;;;28.60;14.10;;;22.30;47.20;;;;;;221780;1265;23934;-53
2022/03/01 18:14:32;;;;;;;23.90;14.00;;;22.20;47.00;;;;;;220277;1267;22530;-50
2022/03/01 18:19:36;;;;;;;25.90;14.80;;;22.20;46.20;;;;;;219999;1267;25660;-49
2022/03/01 18:24:43;;;;;;;28.10;16.30;;;22.40;45.70;;;;;;219637;1265;25429;-50
2022/03/01 18:29:47;;;;;;;28.20;16.60;;;22.70;44.40;;;;;;219473;1265;22537;-50
2022/03/01 18:34:51;;;;;;;32.90;18.50;;;23.00;44.00;;;;;;219739;1267;22554;-54
2022/03/01 18:39:55;;;;;;;34.80;17.80;;;23.20;44.00;;;;;;220070;1267;25333;-53
2022/03/01 18:44:59;;;;;;;30.70;17.50;;;23.50;43.80;;;;;;219904;1268;25546;-54
2022/03/01 18:50:05;;;;;;;32.60;18.20;;;23.60;42.50;;;;;;219811;1267;25294;-55
2022/03/01 18:55:22;;;;;;;37.90;19.40;;;23.60;42.30;;;;;;219991;1267;25311;-56
2022/03/01 19:00:42;;;;;;;31.70;18.20;;;23.60;42.00;;;;;;228130;1267;22600;-59
2022/03/01 19:06:19;;;;;;;31.80;19.00;;;23.70;41.70;;;;;;225263;1267;24221;-56
2022/03/01 19:11:57;;;;;;;32.20;19.00;;;23.80;41.40;;;;;;228062;1267;22226;-56
2022/03/01 19:17:54;;;;;;;33.50;18.70;;;23.80;41.40;;;;;;227879;1267;22369;-57
2022/03/01 19:23:35;;;;;;;31.50;18.10;;;24.00;41.80;;;;;;223576;1266;25599;-53
2022/03/01 19:30:03;;;;;;;29.20;17.80;;;24.00;40.80;;;;;;219678;1267;22553;-54
2022/03/01 19:35:46;;;;;;;31.20;17.60;;;24.00;40.30;;;;;;220152;1267;24329;-54
2022/03/01 19:41:29;;;;;;;38.30;18.60;;;24.10;40.00;;;;;;219913;1267;22601;-55
2022/03/01 19:47:10;;;;;;;34.50;21.10;;;24.20;42.70;;;;;;220298;1267;24332;-54
2022/03/01 19:52:45;;;;;;;35.70;20.90;;;24.30;42.20;;;;;;219980;1267;22800;-55
2022/03/01 19:58:24;;;;;;;34.20;19.60;;;24.10;42.80;;;;;;221257;1267;25250;-55
2022/03/01 20:04:12;;;;;;;36.30;20.90;;;23.90;42.80;;;;;;220115;1267;22561;-54
2022/03/01 20:09:16;;;;;;;36.00;19.30;;;23.60;42.60;;;;;;220131;1267;23949;-55
2022/03/01 20:14:21;;;;;;;38.60;20.50;;;23.40;43.30;;;;;;220151;1267;25602;-51
2022/03/01 20:19:28;;;;;;;37.10;21.20;;;23.20;43.30;;;;;;220203;1266;22547;-54
2022/03/01 20:24:31;;;;;;;38.20;22.00;;;23.10;43.40;;;;;;220024;1267;27524;-54
2022/03/01 20:29:36;;;;;;;39.40;22.00;;;23.00;43.30;;;;;;219967;1267;22545;-54
2022/03/01 20:34:39;;;;;;;42.60;23.40;;;22.80;43.30;;;;;;219799;1267;25518;-52
2022/03/01 20:39:55;;;;;;;41.70;25.70;;;22.80;43.70;;;;;;219979;1267;26953;-53
2022/03/01 20:45:32;;;;;;;40.30;25.00;;;22.80;43.30;;;;;;219940;1267;22563;-52
2022/03/01 20:50:40;;;;;;;41.20;24.30;;;22.80;43.30;;;;;;220280;1267;23276;-56
2022/03/01 20:55:46;;;;;;;41.20;23.90;;;22.70;43.40;;;;;;220612;1267;22694;-57
2022/03/01 21:00:49;;;;;;;45.30;24.40;;;22.70;43.60;;;;;;220281;1267;25309;-56
2022/03/01 21:05:55;;;;;;;40.60;23.30;;;22.50;44.30;;;;;;220318;1267;24351;-56
2022/03/01 21:10:59;;;;;;;46.00;25.60;;;22.50;44.60;;;;;;219907;1267;23961;-56
2022/03/01 21:16:12;;;;;;;40.40;24.60;;;22.50;44.70;;;;;;220232;1267;22557;-54
2022/03/01 21:21:16;;;;;;;40.60;23.90;;;22.40;44.80;;;;;;220955;1267;24216;-56
2022/03/01 21:26:21;;;;;;;42.50;24.50;;;22.40;45.20;;;;;;220397;1266;25582;-55
2022/03/01 21:31:26;;;;;;;41.60;24.40;;;22.30;45.40;;;;;;220371;1267;340937;-55
2022/03/01 21:36:30;;;;;;;38.00;21.20;;;22.20;45.10;;;;;;220235;1266;22610;-57
2022/03/01 21:41:35;;;;;;;39.10;22.30;;;22.40;44.90;;;;;;220107;1267;23898;-55
2022/03/01 21:46:39;;;;;;;34.90;22.00;;;22.90;44.20;;;;;;219950;1267;22636;-57
2022/03/01 21:51:44;;;;;;;35.10;21.30;;;23.20;43.50;;;;;;220405;1267;22618;-56
2022/03/01 21:56:48;;;;;;;35.20;21.20;;;23.50;43.10;;;;;;219936;1265;22528;-55
2022/03/01 22:01:51;;;;;;;34.80;20.90;;;23.60;42.80;;;;;;221799;1267;22616;-56
2022/03/01 22:06:56;;;;;;;37.60;22.30;;;23.60;42.70;;;;;;219892;1267;24309;-58
2022/03/01 22:12:01;;;;;;;36.40;21.00;;;23.80;42.90;;;;;;219975;1267;25299;-56
2022/03/01 22:17:05;;;;;;;37.30;22.10;;;23.80;41.90;;;;;;220023;1267;22545;-57
2022/03/01 22:22:10;;;;;;;33.70;21.60;;;23.90;42.20;;;;;;220114;1267;22545;-58
2022/03/01 22:27:13;;;;;;;33.30;21.00;;;23.90;42.40;;;;;;220405;1267;25491;-52
2022/03/01 22:32:18;;;;;;;36.90;21.60;;;24.00;42.10;;;;;;220239;1267;22481;-57
2022/03/01 22:37:25;;;;;;;32.40;21.10;;;24.00;42.10;;;;;;219913;1267;24282;-55
2022/03/01 22:42:35;;;;;;;32.70;19.80;;;24.10;42.00;;;;;;220176;1267;22557;-53
2022/03/01 22:47:45;;;;;;;31.60;20.80;;;24.10;42.00;;;;;;220206;1267;22557;-56
2022/03/01 22:52:53;;;;;;;31.30;20.70;;;24.10;41.90;;;;;;220070;1267;22769;-56
2022/03/01 22:58:09;;;;;;;29.60;19.20;;;24.20;41.80;;;;;;220030;1267;24260;-57
2022/03/01 23:03:19;;;;;;;31.50;19.50;;;24.20;41.80;;;;;;219981;1267;25313;-56
2022/03/01 23:08:41;;;;;;;31.20;19.20;;;24.20;42.30;;;;;;219937;1267;25261;-56
2022/03/01 23:13:52;;;;;;;34.00;19.10;;;24.30;41.60;;;;;;220304;1267;22610;-56
2022/03/01 23:18:59;;;;;;;28.30;18.10;;;24.30;42.00;;;;;;219872;1267;22661;-57
2022/03/01 23:24:03;;;;;;;32.90;19.50;;;24.20;42.00;;;;;;220000;1267;24303;-56
2022/03/01 23:29:07;;;;;;;32.20;19.70;;;24.10;42.10;;;;;;220146;1267;22524;-57
2022/03/01 23:34:15;;;;;;;28.20;17.80;;;23.90;42.40;;;;;;220051;1266;24232;-52
2022/03/01 23:39:23;;;;;;;30.40;18.80;;;23.70;42.30;;;;;;219988;1267;23554;-55
2022/03/01 23:44:45;;;;;;;30.60;18.20;;;23.60;43.10;;;;;;220214;1267;22595;-55
2022/03/01 23:49:52;;;;;;;32.60;19.00;;;23.40;43.40;;;;;;220082;1266;25652;-57
2022/03/01 23:54:57;;;;;;;31.40;18.20;;;23.20;43.70;;;;;;220260;1267;24345;-57
